Time;durP1;ratioP1;P1;durP2;ratioP2;P2;SDS_P1;SDS_P2;PMS_P1;PMS_P2;Temp;Humidity;BMP_temperature;BMP_pressure;BME280_temperature;BME280_humidity;BME280_pressure;Samples;Min_cycle;Max_cycle;Signal;HPM_P1;HPM_P2
2022/01/23 00:00:44;;;;;;;142.10;76.80;;;;;;;;;;5042894;28;20419;-78
2022/01/23 00:03:17;;;;;;;135.82;76.53;;;;;;;;;;5056583;28;20408;-80
2022/01/23 00:05:47;;;;;;;136.75;72.45;;;;;;;;;;5040705;28;20041;-78
2022/01/23 00:08:15;;;;;;;132.90;73.75;;;;;;;;;;5115094;22;20504;-79
2022/01/23 00:10:41;;;;;;;128.30;71.63;;;;;;;;;;5059923;28;20064;-80
2022/01/23 00:18:18;;;;;;;135.63;73.07;;;;;;;;;;5062769;28;20068;-80
2022/01/23 00:20:44;;;;;;;133.63;74.13;;;;;;;;;;5048336;28;20056;-80
2022/01/23 00:23:26;;;;;;;141.90;73.72;;;;;;;;;;5060261;28;20047;-80
2022/01/23 00:31:22;;;;;;;129.82;73.72;;;;;;;;;;5079198;28;20056;-80
2022/01/23 00:33:48;;;;;;;136.95;76.35;;;;;;;;;;5091583;28;20040;-83
2022/01/23 00:36:14;;;;;;;131.88;71.32;;;;;;;;;;5078224;28;20101;-81
2022/01/23 00:38:40;;;;;;;133.63;72.95;;;;;;;;;;5062157;28;20052;-83
2022/01/23 00:41:06;;;;;;;128.68;73.85;;;;;;;;;;5045402;28;20041;-83
2022/01/23 00:43:33;;;;;;;137.88;75.05;;;;;;;;;;5078014;28;20048;-84
2022/01/23 00:49:02;;;;;;;131.52;71.85;;;;;;;;;;5060905;28;20036;-80
2022/01/23 00:51:33;;;;;;;136.45;70.43;;;;;;;;;;5060503;28;20137;-80
2022/01/23 00:53:59;;;;;;;138.93;73.00;;;;;;;;;;5042940;28;20424;-78
2022/01/23 00:56:25;;;;;;;131.45;72.03;;;;;;;;;;5044700;28;20064;-79
2022/01/23 00:58:51;;;;;;;134.32;72.25;;;;;;;;;;5042761;28;20067;-79
2022/01/23 01:01:17;;;;;;;136.05;71.78;;;;;;;;;;5042882;28;20341;-79
2022/01/23 01:03:43;;;;;;;130.82;70.15;;;;;;;;;;5042484;28;20045;-79
2022/01/23 01:06:12;;;;;;;126.28;71.30;;;;;;;;;;5044403;28;20068;-80
2022/01/23 01:08:39;;;;;;;134.15;71.97;;;;;;;;;;5059965;28;20060;-81
2022/01/23 01:33:38;;;;;;;127.25;68.97;;;;;;;;;;5061570;28;20033;-83
2022/01/23 01:35:45;;;;;;;136.30;72.47;;;;;;;;;;5055108;28;20041;-82
2022/01/23 01:38:11;;;;;;;132.38;68.68;;;;;;;;;;5060740;28;20037;-81
2022/01/23 01:40:37;;;;;;;131.15;69.63;;;;;;;;;;5061255;28;20361;-82
2022/01/23 01:43:04;;;;;;;124.95;68.95;;;;;;;;;;5060537;28;20496;-82
2022/01/23 01:45:30;;;;;;;130.25;68.43;;;;;;;;;;5061667;28;20041;-81
2022/01/23 01:47:59;;;;;;;125.57;68.00;;;;;;;;;;5060729;28;20041;-80
2022/01/23 01:50:25;;;;;;;122.68;64.80;;;;;;;;;;5060636;28;20059;-79
2022/01/23 01:52:51;;;;;;;125.53;66.03;;;;;;;;;;5060402;28;20326;-80
2022/01/23 01:55:23;;;;;;;118.25;63.65;;;;;;;;;;5060550;28;20044;-82
2022/01/23 01:57:53;;;;;;;122.50;63.88;;;;;;;;;;5058951;28;20128;-79
2022/01/23 02:08:29;;;;;;;114.78;61.05;;;;;;;;;;5066208;28;20052;-82
2022/01/23 02:11:02;;;;;;;109.80;58.63;;;;;;;;;;5060243;28;20075;-81
2022/01/23 02:13:35;;;;;;;105.80;56.35;;;;;;;;;;5044420;28;20044;-81
2022/01/23 02:16:32;;;;;;;96.13;53.13;;;;;;;;;;5060015;28;20086;-82
2022/01/23 02:24:45;;;;;;;110.22;56.17;;;;;;;;;;5060374;28;20049;-80
2022/01/23 02:52:08;;;;;;;93.93;54.00;;;;;;;;;;5074626;28;20033;-80
2022/01/23 02:57:52;;;;;;;96.97;53.00;;;;;;;;;;5038385;28;20055;-79
2022/01/23 03:00:19;;;;;;;98.72;52.75;;;;;;;;;;5059395;28;20029;-80
2022/01/23 03:02:49;;;;;;;95.93;53.13;;;;;;;;;;5059565;28;20535;-80
2022/01/23 03:05:33;;;;;;;97.13;53.55;;;;;;;;;;5075793;28;20457;-80
2022/01/23 03:10:40;;;;;;;101.00;53.08;;;;;;;;;;5058543;28;20093;-81
2022/01/23 03:26:52;;;;;;;104.10;54.00;;;;;;;;;;5058279;28;20043;-81
2022/01/23 03:29:27;;;;;;;98.13;51.75;;;;;;;;;;5060473;28;20032;-81
2022/01/23 03:34:24;;;;;;;100.05;51.72;;;;;;;;;;5057429;28;20063;-79
2022/01/23 03:36:50;;;;;;;107.18;53.13;;;;;;;;;;5050372;28;20084;-79
2022/01/23 03:39:16;;;;;;;99.00;54.70;;;;;;;;;;5078632;28;20028;-78
2022/01/23 03:41:43;;;;;;;101.47;52.88;;;;;;;;;;5041829;28;20025;-79
2022/01/23 03:44:10;;;;;;;99.40;54.78;;;;;;;;;;5057092;28;20310;-79
2022/01/23 03:51:56;;;;;;;100.43;53.85;;;;;;;;;;5057101;28;20033;-79
2022/01/23 03:54:23;;;;;;;96.55;54.03;;;;;;;;;;5040699;28;20041;-79
2022/01/23 03:56:50;;;;;;;104.72;55.40;;;;;;;;;;5043048;28;20040;-81
2022/01/23 03:59:16;;;;;;;123.20;59.50;;;;;;;;;;5058358;28;20037;-79
2022/01/23 04:01:42;;;;;;;116.38;57.83;;;;;;;;;;5040686;28;20048;-79
2022/01/23 04:04:25;;;;;;;113.45;56.65;;;;;;;;;;5040125;28;20048;-79
2022/01/23 04:06:51;;;;;;;113.80;57.10;;;;;;;;;;5042126;28;20037;-79
2022/01/23 04:09:17;;;;;;;114.47;60.20;;;;;;;;;;5039651;28;20117;-78
2022/01/23 04:11:44;;;;;;;116.40;58.08;;;;;;;;;;5059139;28;20491;-81
2022/01/23 04:14:12;;;;;;;111.35;55.60;;;;;;;;;;5057665;28;20116;-79
2022/01/23 04:19:32;;;;;;;118.57;57.65;;;;;;;;;;5056712;28;20064;-80
2022/01/23 05:00:49;;;;;;;97.00;52.65;;;;;;;;;;5061250;28;20041;-82
2022/01/23 05:05:41;;;;;;;97.93;50.92;;;;;;;;;;5062287;28;20090;-80
2022/01/23 05:08:09;;;;;;;100.72;52.35;;;;;;;;;;5062389;28;20052;-81
2022/01/23 05:10:35;;;;;;;92.15;49.58;;;;;;;;;;5080414;28;20053;-80
2022/01/23 05:13:02;;;;;;;91.05;49.13;;;;;;;;;;5072639;28;20187;-80
2022/01/23 05:15:28;;;;;;;101.20;50.42;;;;;;;;;;5060980;28;20041;-81
2022/01/23 05:17:54;;;;;;;90.70;48.22;;;;;;;;;;5077647;28;20037;-81
2022/01/23 05:20:24;;;;;;;98.82;53.75;;;;;;;;;;5061326;28;20423;-81
2022/01/23 05:22:53;;;;;;;76.47;39.17;;;;;;;;;;5046040;28;20045;-80
2022/01/23 05:25:23;;;;;;;71.00;39.55;;;;;;;;;;5061814;28;20223;-81
2022/01/23 05:27:53;;;;;;;88.45;47.05;;;;;;;;;;5046183;28;20041;-80
2022/01/23 05:30:19;;;;;;;95.90;47.63;;;;;;;;;;5045849;28;20036;-80
2022/01/23 05:32:45;;;;;;;83.32;45.85;;;;;;;;;;5046176;28;20124;-81
2022/01/23 05:35:13;;;;;;;89.82;46.42;;;;;;;;;;5079511;28;20102;-81
2022/01/23 05:37:39;;;;;;;88.50;46.47;;;;;;;;;;5063368;28;20041;-81
2022/01/23 05:40:05;;;;;;;92.70;46.97;;;;;;;;;;5046189;28;20071;-81
2022/01/23 05:42:31;;;;;;;87.38;46.60;;;;;;;;;;5062959;28;20055;-79
2022/01/23 05:44:57;;;;;;;95.05;47.75;;;;;;;;;;5060935;28;20108;-80
2022/01/23 05:47:23;;;;;;;86.95;46.03;;;;;;;;;;5060247;28;20033;-80
2022/01/23 05:49:49;;;;;;;88.47;47.97;;;;;;;;;;5059272;28;20112;-80
2022/01/23 05:52:15;;;;;;;85.10;45.20;;;;;;;;;;5043675;28;20502;-80
2022/01/23 05:54:41;;;;;;;78.63;43.05;;;;;;;;;;5062890;28;20091;-79
2022/01/23 05:57:07;;;;;;;82.47;43.88;;;;;;;;;;5080023;28;20077;-80
2022/01/23 05:59:33;;;;;;;72.82;41.05;;;;;;;;;;5061390;28;20488;-79
2022/01/23 06:01:59;;;;;;;78.57;41.65;;;;;;;;;;5042735;28;20033;-78
2022/01/23 06:04:25;;;;;;;78.72;42.15;;;;;;;;;;5075324;28;20342;-80
2022/01/23 06:06:52;;;;;;;73.75;39.97;;;;;;;;;;5053185;28;20443;-80
2022/01/23 06:09:20;;;;;;;79.05;40.50;;;;;;;;;;5063160;28;20053;-80
2022/01/23 06:11:46;;;;;;;82.20;43.35;;;;;;;;;;5044141;28;20043;-80
2022/01/23 06:14:12;;;;;;;80.93;41.83;;;;;;;;;;5043357;28;20461;-80
2022/01/23 06:16:39;;;;;;;80.22;39.10;;;;;;;;;;5042614;28;20049;-81
2022/01/23 06:19:05;;;;;;;72.50;39.42;;;;;;;;;;5043023;28;20045;-80
2022/01/23 06:21:31;;;;;;;72.45;39.53;;;;;;;;;;5042556;28;20449;-78
2022/01/23 06:24:09;;;;;;;74.95;39.33;;;;;;;;;;5041046;28;20130;-80
2022/01/23 06:26:55;;;;;;;75.25;39.78;;;;;;;;;;5042745;28;20040;-80
2022/01/23 06:29:21;;;;;;;74.40;39.67;;;;;;;;;;5056403;28;20139;-81
2022/01/23 06:31:48;;;;;;;76.57;41.40;;;;;;;;;;5043733;28;20044;-78
2022/01/23 06:34:14;;;;;;;83.45;41.70;;;;;;;;;;5041307;28;20048;-77
2022/01/23 06:36:40;;;;;;;80.70;41.72;;;;;;;;;;5056851;28;20103;-77
2022/01/23 06:39:07;;;;;;;78.82;41.55;;;;;;;;;;5044337;28;20120;-78
2022/01/23 06:41:33;;;;;;;80.72;40.42;;;;;;;;;;5063714;28;20063;-77
2022/01/23 06:43:59;;;;;;;75.78;39.05;;;;;;;;;;5044838;28;20057;-77
2022/01/23 06:46:25;;;;;;;82.93;42.05;;;;;;;;;;5056920;28;20356;-78
2022/01/23 06:48:51;;;;;;;77.88;41.08;;;;;;;;;;5056786;28;20128;-78
2022/01/23 06:51:17;;;;;;;78.65;41.17;;;;;;;;;;5072768;28;20090;-77
2022/01/23 06:53:44;;;;;;;82.53;41.78;;;;;;;;;;5055919;28;20044;-76
2022/01/23 06:56:10;;;;;;;82.28;41.88;;;;;;;;;;5073751;28;20052;-77
2022/01/23 06:58:36;;;;;;;77.80;39.83;;;;;;;;;;5076463;28;20045;-77
2022/01/23 07:01:04;;;;;;;80.40;42.75;;;;;;;;;;5055342;28;20052;-77
2022/01/23 07:03:30;;;;;;;83.95;42.72;;;;;;;;;;5071578;28;20135;-77
2022/01/23 07:05:56;;;;;;;78.18;41.05;;;;;;;;;;5055187;28;20120;-77
2022/01/23 07:08:22;;;;;;;78.18;40.53;;;;;;;;;;5056167;28;20060;-77
2022/01/23 07:10:48;;;;;;;77.90;39.17;;;;;;;;;;5055510;28;20108;-77
2022/01/23 07:13:14;;;;;;;78.93;41.70;;;;;;;;;;5055447;28;20449;-77
2022/01/23 07:15:40;;;;;;;75.43;38.33;;;;;;;;;;5071884;28;20090;-77
2022/01/23 07:18:06;;;;;;;83.38;40.13;;;;;;;;;;5039516;28;20033;-77
2022/01/23 07:20:32;;;;;;;79.70;40.08;;;;;;;;;;5055362;28;20040;-77
2022/01/23 07:22:58;;;;;;;76.43;39.53;;;;;;;;;;5061409;28;20036;-78
2022/01/23 07:25:24;;;;;;;76.72;40.90;;;;;;;;;;5040858;28;20494;-78
2022/01/23 07:27:54;;;;;;;82.47;41.58;;;;;;;;;;5076246;28;20036;-77
2022/01/23 07:30:36;;;;;;;89.47;46.10;;;;;;;;;;5054270;28;20083;-77
2022/01/23 07:33:02;;;;;;;79.93;41.30;;;;;;;;;;5042046;28;20119;-77
2022/01/23 07:35:28;;;;;;;83.07;42.20;;;;;;;;;;5054424;28;20102;-77
2022/01/23 07:37:54;;;;;;;82.40;41.95;;;;;;;;;;5055210;28;20051;-77
2022/01/23 07:40:20;;;;;;;81.70;41.25;;;;;;;;;;5038449;28;20041;-78
2022/01/23 07:42:46;;;;;;;78.38;42.03;;;;;;;;;;5040139;28;20036;-77
2022/01/23 07:45:12;;;;;;;82.40;41.75;;;;;;;;;;5056990;28;20049;-78
2022/01/23 07:47:38;;;;;;;80.85;43.28;;;;;;;;;;5073263;28;20169;-78
2022/01/23 07:50:06;;;;;;;78.55;40.28;;;;;;;;;;5058551;28;20134;-78
2022/01/23 07:52:35;;;;;;;80.40;41.30;;;;;;;;;;5039495;28;20041;-78
2022/01/23 07:55:01;;;;;;;81.50;41.33;;;;;;;;;;5056263;28;20048;-76
2022/01/23 07:57:27;;;;;;;80.53;44.53;;;;;;;;;;5054606;28;20051;-76
2022/01/23 07:59:53;;;;;;;83.30;43.38;;;;;;;;;;5037927;28;20037;-78
2022/01/23 08:02:22;;;;;;;84.47;44.42;;;;;;;;;;5055613;28;20075;-76
2022/01/23 08:04:48;;;;;;;90.22;46.92;;;;;;;;;;5053965;28;20049;-76
2022/01/23 08:07:30;;;;;;;85.35;46.10;;;;;;;;;;5070553;28;20515;-76
2022/01/23 08:09:57;;;;;;;91.93;45.20;;;;;;;;;;5040037;28;20044;-77
2022/01/23 08:12:25;;;;;;;100.75;47.38;;;;;;;;;;5057382;28;20052;-77
2022/01/23 08:14:51;;;;;;;87.95;47.30;;;;;;;;;;5043879;28;20064;-78
2022/01/23 08:17:19;;;;;;;82.93;45.17;;;;;;;;;;5075497;28;20041;-78
2022/01/23 08:19:45;;;;;;;89.30;47.70;;;;;;;;;;5058925;28;20049;-77
2022/01/23 08:22:11;;;;;;;79.53;43.53;;;;;;;;;;5058888;28;20037;-78
2022/01/23 08:24:37;;;;;;;96.15;48.90;;;;;;;;;;5060751;28;20040;-78
2022/01/23 08:27:03;;;;;;;86.55;47.30;;;;;;;;;;5060256;28;20201;-78
2022/01/23 08:29:29;;;;;;;91.60;47.03;;;;;;;;;;5044714;28;20040;-78
2022/01/23 08:31:55;;;;;;;88.97;47.78;;;;;;;;;;5075884;28;20044;-78
2022/01/23 08:34:21;;;;;;;85.75;46.42;;;;;;;;;;5063392;28;20102;-76
2022/01/23 08:36:47;;;;;;;87.82;46.30;;;;;;;;;;5057740;28;20147;-76
2022/01/23 08:39:15;;;;;;;82.43;45.40;;;;;;;;;;5073674;28;20037;-76
2022/01/23 08:41:50;;;;;;;94.18;49.20;;;;;;;;;;5041185;28;20041;-78
2022/01/23 08:44:25;;;;;;;96.03;48.70;;;;;;;;;;5044612;28;20449;-78
2022/01/23 08:46:51;;;;;;;91.60;47.63;;;;;;;;;;5061262;28;20033;-78
2022/01/23 08:49:18;;;;;;;96.55;50.15;;;;;;;;;;5058123;28;20037;-76
2022/01/23 08:51:45;;;;;;;95.10;49.28;;;;;;;;;;5042534;28;20037;-77
2022/01/23 08:54:11;;;;;;;105.82;50.67;;;;;;;;;;5042383;28;20033;-76
2022/01/23 08:56:37;;;;;;;99.70;49.30;;;;;;;;;;5057866;28;20518;-77
2022/01/23 08:59:03;;;;;;;102.32;52.95;;;;;;;;;;5059117;28;20491;-77
2022/01/23 09:01:29;;;;;;;108.00;52.03;;;;;;;;;;5058295;28;20457;-79
2022/01/23 09:03:55;;;;;;;100.15;51.13;;;;;;;;;;5061873;28;20072;-79
2022/01/23 09:06:21;;;;;;;103.32;50.88;;;;;;;;;;5045861;28;20475;-79
2022/01/23 09:08:48;;;;;;;104.45;50.45;;;;;;;;;;5041648;28;20073;-77
2022/01/23 09:11:26;;;;;;;104.22;51.63;;;;;;;;;;5059596;28;20065;-77
2022/01/23 09:14:15;;;;;;;103.07;51.97;;;;;;;;;;5060053;28;20041;-79
2022/01/23 09:16:42;;;;;;;109.90;52.03;;;;;;;;;;5061980;28;20048;-79
2022/01/23 09:19:08;;;;;;;103.13;52.67;;;;;;;;;;5046652;28;20123;-79
2022/01/23 09:21:34;;;;;;;105.75;52.17;;;;;;;;;;5061885;28;20392;-79
2022/01/23 09:24:00;;;;;;;103.50;49.70;;;;;;;;;;5043025;28;20056;-77
2022/01/23 09:26:27;;;;;;;99.95;50.22;;;;;;;;;;5044293;28;20045;-79
2022/01/23 09:28:55;;;;;;;102.78;49.15;;;;;;;;;;5043215;28;20064;-78
2022/01/23 09:31:34;;;;;;;103.07;49.88;;;;;;;;;;5059045;28;20421;-77
2022/01/23 09:34:00;;;;;;;102.05;48.53;;;;;;;;;;5043613;28;20048;-77
2022/01/23 09:36:26;;;;;;;103.22;50.03;;;;;;;;;;5059594;28;20040;-77
2022/01/23 09:38:52;;;;;;;93.50;47.90;;;;;;;;;;5058062;28;20051;-75
2022/01/23 09:41:20;;;;;;;95.07;47.70;;;;;;;;;;5043495;28;20076;-76
2022/01/23 09:43:46;;;;;;;92.35;47.28;;;;;;;;;;5061401;28;20037;-76
2022/01/23 09:46:12;;;;;;;92.63;45.60;;;;;;;;;;5073549;28;20044;-76
2022/01/23 09:48:38;;;;;;;94.05;48.20;;;;;;;;;;5045117;28;20037;-77
2022/01/23 09:51:04;;;;;;;93.18;46.90;;;;;;;;;;5043226;28;20076;-78
2022/01/23 09:53:30;;;;;;;95.53;48.13;;;;;;;;;;5041597;28;20029;-76
2022/01/23 09:56:03;;;;;;;92.10;45.60;;;;;;;;;;5057480;28;20041;-77
2022/01/23 09:58:29;;;;;;;88.13;45.40;;;;;;;;;;5045381;28;20047;-78
2022/01/23 10:00:56;;;;;;;84.03;43.92;;;;;;;;;;5042810;28;20076;-76
2022/01/23 10:03:22;;;;;;;83.65;43.58;;;;;;;;;;5058433;28;20040;-76
2022/01/23 10:05:50;;;;;;;87.75;44.45;;;;;;;;;;5057373;28;20033;-76
2022/01/23 10:08:17;;;;;;;85.45;43.75;;;;;;;;;;5056928;28;20049;-78
2022/01/23 10:10:49;;;;;;;87.00;43.45;;;;;;;;;;5077313;28;20040;-78
2022/01/23 10:13:15;;;;;;;76.85;41.92;;;;;;;;;;5044164;28;20039;-78
2022/01/23 10:15:41;;;;;;;80.85;42.72;;;;;;;;;;5040914;28;20123;-78
2022/01/23 10:18:07;;;;;;;83.78;44.50;;;;;;;;;;5058868;28;20044;-76
2022/01/23 10:20:33;;;;;;;79.75;41.70;;;;;;;;;;5055890;28;20036;-76
2022/01/23 10:22:59;;;;;;;83.40;42.65;;;;;;;;;;5039048;28;20384;-76
2022/01/23 10:25:28;;;;;;;77.78;41.30;;;;;;;;;;5039120;28;20117;-76
2022/01/23 10:28:05;;;;;;;79.30;42.15;;;;;;;;;;5074039;28;20061;-79
2022/01/23 10:30:32;;;;;;;72.63;38.90;;;;;;;;;;5044250;28;20036;-79
2022/01/23 10:33:17;;;;;;;70.70;39.25;;;;;;;;;;5076168;28;20033;-77
2022/01/23 10:36:01;;;;;;;75.65;39.90;;;;;;;;;;5059598;28;20048;-79
2022/01/23 10:38:37;;;;;;;77.43;38.53;;;;;;;;;;5059253;28;20033;-78
2022/01/23 10:42:00;;;;;;;71.97;35.60;;;;;;;;;;5058022;28;20037;-78
2022/01/23 10:47:17;;;;;;;;;;;;;;;;;;5059284;28;20033;-77
2022/01/23 10:49:46;;;;;;;66.68;36.10;;;;;;;;;;5060300;28;19931;-79
2022/01/23 10:52:24;;;;;;;72.38;37.15;;;;;;;;;;5059983;28;20047;-76
2022/01/23 10:54:50;;;;;;;70.15;36.72;;;;;;;;;;5046955;28;20040;-80
2022/01/23 10:57:16;;;;;;;66.65;35.38;;;;;;;;;;5043408;28;20037;-78
2022/01/23 10:59:43;;;;;;;64.93;35.15;;;;;;;;;;5061806;28;20041;-78
2022/01/23 11:02:13;;;;;;;62.55;35.08;;;;;;;;;;5059337;28;20037;-76
2022/01/23 11:05:02;;;;;;;57.53;32.92;;;;;;;;;;5055890;28;20068;-77
2022/01/23 11:07:28;;;;;;;58.63;32.42;;;;;;;;;;5058639;28;20037;-77
2022/01/23 11:10:05;;;;;;;59.83;32.67;;;;;;;;;;5057408;28;20385;-78
2022/01/23 11:17:53;;;;;;;62.63;32.88;;;;;;;;;;5066843;28;20090;-80
2022/01/23 11:20:30;;;;;;;62.90;34.38;;;;;;;;;;5075489;28;20045;-80
2022/01/23 11:23:12;;;;;;;59.45;32.90;;;;;;;;;;5066239;28;20089;-78
2022/01/23 11:25:46;;;;;;;60.05;33.03;;;;;;;;;;5046930;28;20067;-77
2022/01/23 11:28:11;;;;;;;;;;;;;;;;;;5040495;28;20033;-77
2022/01/23 11:30:40;;;;;;;68.60;34.22;;;;;;;;;;5059060;28;20248;-76
2022/01/23 11:33:08;;;;;;;61.55;34.00;;;;;;;;;;5039233;28;20036;-77
2022/01/23 11:35:33;;;;;;;65.43;34.22;;;;;;;;;;5059627;28;20048;-77
2022/01/23 11:38:00;;;;;;;60.85;34.30;;;;;;;;;;5055052;28;20051;-77
2022/01/23 11:54:02;;;;;;;50.85;28.80;;;;;;;;;;5061319;28;20120;-77
2022/01/23 11:56:30;;;;;;;57.90;28.50;;;;;;;;;;5062870;28;20048;-80
2022/01/23 11:59:22;;;;;;;48.60;25.05;;;;;;;;;;5065748;28;20044;-80
2022/01/23 12:01:48;;;;;;;46.17;24.85;;;;;;;;;;5066225;28;20040;-79
2022/01/23 12:04:22;;;;;;;45.78;25.85;;;;;;;;;;5048821;28;20452;-80
2022/01/23 12:07:17;;;;;;;47.60;25.20;;;;;;;;;;5049173;28;20040;-80
2022/01/23 12:09:45;;;;;;;49.28;26.98;;;;;;;;;;5047475;28;20048;-79
2022/01/23 12:17:16;;;;;;;49.47;27.17;;;;;;;;;;5061399;28;20041;-78
2022/01/23 12:19:49;;;;;;;49.40;26.33;;;;;;;;;;5074574;28;20048;-76
2022/01/23 12:22:24;;;;;;;45.30;25.20;;;;;;;;;;5059868;28;20049;-79
2022/01/23 12:24:50;;;;;;;45.50;26.02;;;;;;;;;;5060370;28;20090;-78
2022/01/23 12:27:21;;;;;;;50.30;27.90;;;;;;;;;;5044157;28;20037;-78
2022/01/23 12:29:47;;;;;;;47.45;25.67;;;;;;;;;;5042702;28;20040;-78
2022/01/23 12:32:26;;;;;;;50.45;26.20;;;;;;;;;;5058122;28;20445;-76
2022/01/23 12:34:59;;;;;;;49.97;26.33;;;;;;;;;;5043515;28;20055;-76
2022/01/23 12:37:26;;;;;;;50.17;26.20;;;;;;;;;;5058420;28;20076;-76
2022/01/23 12:40:11;;;;;;;47.83;25.20;;;;;;;;;;5060841;28;20040;-75
2022/01/23 12:42:55;;;;;;;44.13;24.05;;;;;;;;;;5060372;28;20052;-75
2022/01/23 12:45:40;;;;;;;50.92;26.92;;;;;;;;;;5077628;28;20060;-75
2022/01/23 12:48:25;;;;;;;45.13;23.95;;;;;;;;;;5063320;28;20025;-77
2022/01/23 12:50:51;;;;;;;42.83;23.27;;;;;;;;;;5075554;28;20051;-77
2022/01/23 12:53:17;;;;;;;43.47;23.75;;;;;;;;;;5069292;28;20040;-78
2022/01/23 12:56:02;;;;;;;36.72;21.50;;;;;;;;;;5053012;28;20041;-78
2022/01/23 12:58:28;;;;;;;41.95;20.15;;;;;;;;;;5062171;28;20037;-77
2022/01/23 13:00:54;;;;;;;37.70;21.20;;;;;;;;;;5061749;28;20040;-77
2022/01/23 13:03:24;;;;;;;38.05;19.98;;;;;;;;;;5043589;28;20033;-79
2022/01/23 13:05:50;;;;;;;31.00;18.08;;;;;;;;;;5060322;28;20045;-79
2022/01/23 13:08:32;;;;;;;32.85;17.40;;;;;;;;;;5061992;28;20041;-79
2022/01/23 13:13:47;;;;;;;26.47;14.63;;;;;;;;;;5061734;28;20047;-78
2022/01/23 13:29:54;;;;;;;24.10;13.38;;;;;;;;;;5057429;28;20037;-76
2022/01/23 13:32:07;;;;;;;29.02;13.82;;;;;;;;;;5061853;28;20487;-77
2022/01/23 13:34:35;;;;;;;28.90;13.65;;;;;;;;;;5043639;28;20399;-77
2022/01/23 13:37:01;;;;;;;22.65;13.20;;;;;;;;;;5059514;28;20174;-79
2022/01/23 13:39:30;;;;;;;25.40;13.02;;;;;;;;;;5075883;28;20483;-77
2022/01/23 13:42:12;;;;;;;23.92;13.80;;;;;;;;;;5075613;28;20441;-79
2022/01/23 13:53:07;;;;;;;31.70;18.27;;;;;;;;;;5063217;28;20029;-79
2022/01/23 14:01:03;;;;;;;29.05;17.48;;;;;;;;;;5058302;28;20055;-77
2022/01/23 14:03:29;;;;;;;28.52;17.13;;;;;;;;;;5041065;28;20041;-77
2022/01/23 14:05:55;;;;;;;29.52;16.85;;;;;;;;;;5040929;28;20373;-79
2022/01/23 14:08:21;;;;;;;30.15;17.38;;;;;;;;;;5054679;28;20072;-77
2022/01/23 14:10:50;;;;;;;28.80;15.68;;;;;;;;;;5037209;28;20044;-78
2022/01/23 14:13:19;;;;;;;28.83;15.27;;;;;;;;;;5038266;28;20037;-78
2022/01/23 14:15:46;;;;;;;26.73;15.48;;;;;;;;;;5041169;28;20124;-79
2022/01/23 14:18:12;;;;;;;29.67;15.50;;;;;;;;;;5040946;28;20041;-77
2022/01/23 14:20:42;;;;;;;29.20;14.77;;;;;;;;;;5039321;28;20419;-77
2022/01/23 14:23:15;;;;;;;24.63;14.13;;;;;;;;;;5038861;28;20420;-79
2022/01/23 14:25:41;;;;;;;;;;;;;;;;;;5041951;28;20353;-79
2022/01/23 14:28:11;;;;;;;27.75;15.50;;;;;;;;;;5041719;28;19909;-79
2022/01/23 14:30:44;;;;;;;27.33;14.32;;;;;;;;;;5054262;28;20052;-78
2022/01/23 14:33:14;;;;;;;27.02;15.70;;;;;;;;;;5038869;28;20041;-77
2022/01/23 14:35:40;;;;;;;24.70;14.93;;;;;;;;;;5036824;28;20046;-77
2022/01/23 14:38:13;;;;;;;27.02;14.48;;;;;;;;;;5052793;28;20522;-78
2022/01/23 14:40:40;;;;;;;25.67;14.27;;;;;;;;;;5036964;28;20084;-78
2022/01/23 14:43:09;;;;;;;24.80;13.93;;;;;;;;;;5037325;28;20056;-78
2022/01/23 14:45:39;;;;;;;34.42;18.98;;;;;;;;;;5038162;28;20057;-77
2022/01/23 14:48:06;;;;;;;41.15;24.88;;;;;;;;;;5037392;28;20049;-79
2022/01/23 14:50:34;;;;;;;25.63;16.02;;;;;;;;;;5039868;28;20101;-77
2022/01/23 14:53:10;;;;;;;28.30;15.75;;;;;;;;;;5040282;28;20072;-78
2022/01/23 14:55:36;;;;;;;26.75;15.38;;;;;;;;;;5038317;28;20141;-78
2022/01/23 14:58:03;;;;;;;29.83;17.60;;;;;;;;;;5037768;28;20107;-77
2022/01/23 15:00:30;;;;;;;29.33;16.23;;;;;;;;;;5037740;28;20041;-77
2022/01/23 15:02:56;;;;;;;25.50;15.70;;;;;;;;;;5036294;28;20049;-77
2022/01/23 15:05:22;;;;;;;25.67;14.63;;;;;;;;;;5035909;28;20053;-77
2022/01/23 15:07:48;;;;;;;26.88;14.57;;;;;;;;;;5041260;28;20095;-78
2022/01/23 15:10:14;;;;;;;25.05;15.40;;;;;;;;;;5061681;28;20028;-79
2022/01/23 15:12:40;;;;;;;32.03;17.95;;;;;;;;;;5060933;28;20036;-77
2022/01/23 15:15:06;;;;;;;29.95;17.85;;;;;;;;;;5040602;28;20052;-77
2022/01/23 15:17:33;;;;;;;28.50;17.02;;;;;;;;;;5055986;28;20067;-77
2022/01/23 15:19:59;;;;;;;27.88;14.60;;;;;;;;;;5055838;28;20332;-77
2022/01/23 15:22:25;;;;;;;23.25;12.40;;;;;;;;;;5039042;28;20075;-78
2022/01/23 15:24:51;;;;;;;25.85;14.65;;;;;;;;;;5039485;28;20072;-77
2022/01/23 15:27:17;;;;;;;28.25;15.75;;;;;;;;;;5063208;28;20096;-79
2022/01/23 15:29:43;;;;;;;27.88;14.38;;;;;;;;;;5062123;28;20037;-78
2022/01/23 15:32:09;;;;;;;25.33;13.77;;;;;;;;;;5045395;28;20178;-77
2022/01/23 15:34:36;;;;;;;25.40;14.07;;;;;;;;;;5040705;28;20048;-77
2022/01/23 15:37:03;;;;;;;21.50;13.85;;;;;;;;;;5040070;28;20102;-77
2022/01/23 15:39:30;;;;;;;29.67;15.70;;;;;;;;;;5060915;28;20052;-79
2022/01/23 15:41:56;;;;;;;27.17;15.27;;;;;;;;;;5060515;28;20080;-79
2022/01/23 15:44:22;;;;;;;30.75;15.30;;;;;;;;;;5044225;28;20073;-79
2022/01/23 15:46:50;;;;;;;29.58;15.98;;;;;;;;;;5061175;28;20368;-79
2022/01/23 15:49:16;;;;;;;25.50;15.80;;;;;;;;;;5062005;28;20104;-79
2022/01/23 15:51:47;;;;;;;27.42;15.77;;;;;;;;;;5061413;28;20044;-79
2022/01/23 15:54:13;;;;;;;26.05;14.82;;;;;;;;;;5044275;28;20114;-78
2022/01/23 15:56:39;;;;;;;21.67;13.20;;;;;;;;;;5042829;28;20057;-79
2022/01/23 15:59:05;;;;;;;26.40;13.48;;;;;;;;;;5043122;28;20075;-79
2022/01/23 16:01:31;;;;;;;23.58;14.20;;;;;;;;;;5065070;28;20044;-78
2022/01/23 16:03:57;;;;;;;26.88;14.77;;;;;;;;;;5062615;28;20045;-77
2022/01/23 16:06:23;;;;;;;24.55;14.20;;;;;;;;;;5045809;28;20088;-78
2022/01/23 16:08:49;;;;;;;23.80;14.43;;;;;;;;;;5045564;28;20403;-78
2022/01/23 16:11:15;;;;;;;27.58;17.77;;;;;;;;;;5070986;28;20404;-79
2022/01/23 16:13:41;;;;;;;28.98;16.45;;;;;;;;;;5058387;28;20052;-78
2022/01/23 16:16:08;;;;;;;30.70;17.83;;;;;;;;;;5046007;28;20080;-79
2022/01/23 16:18:34;;;;;;;28.23;16.75;;;;;;;;;;5059889;28;20045;-78
2022/01/23 16:21:00;;;;;;;30.80;16.65;;;;;;;;;;5046962;28;20044;-79
2022/01/23 16:23:26;;;;;;;29.48;16.92;;;;;;;;;;5064515;28;20086;-79
2022/01/23 16:25:52;;;;;;;25.48;13.82;;;;;;;;;;5043590;28;20048;-79
2022/01/23 16:28:19;;;;;;;24.40;13.80;;;;;;;;;;5077681;28;20041;-78
2022/01/23 16:30:46;;;;;;;31.98;17.80;;;;;;;;;;5061650;28;20045;-79
2022/01/23 16:33:12;;;;;;;30.73;17.08;;;;;;;;;;5045161;28;20116;-79
2022/01/23 16:35:38;;;;;;;34.35;18.48;;;;;;;;;;5048072;28;20054;-79
2022/01/23 16:38:04;;;;;;;29.67;17.67;;;;;;;;;;5053702;28;20096;-78
2022/01/23 16:40:30;;;;;;;30.67;17.23;;;;;;;;;;5069607;28;20041;-79
2022/01/23 16:42:56;;;;;;;35.35;18.27;;;;;;;;;;5050038;28;20060;-80
2022/01/23 16:45:23;;;;;;;31.85;17.52;;;;;;;;;;5065967;28;20041;-79
2022/01/23 16:47:49;;;;;;;30.27;18.20;;;;;;;;;;5046600;28;20033;-79
2022/01/23 16:50:16;;;;;;;34.30;17.55;;;;;;;;;;5065368;28;20044;-79
2022/01/23 16:52:42;;;;;;;31.42;17.17;;;;;;;;;;5081435;28;20406;-79
2022/01/23 16:55:08;;;;;;;27.42;16.25;;;;;;;;;;5065198;28;20048;-80
2022/01/23 16:57:34;;;;;;;35.05;19.55;;;;;;;;;;5065358;28;20045;-79
2022/01/23 17:00:00;;;;;;;32.80;17.67;;;;;;;;;;5081908;28;20071;-79
2022/01/23 17:02:26;;;;;;;27.33;17.05;;;;;;;;;;5064452;28;20063;-78
2022/01/23 17:04:52;;;;;;;27.40;16.58;;;;;;;;;;5065450;28;20045;-78
2022/01/23 17:07:18;;;;;;;33.60;15.98;;;;;;;;;;5064110;28;20384;-78
2022/01/23 17:09:44;;;;;;;27.38;15.15;;;;;;;;;;5063567;28;20083;-78
2022/01/23 17:12:10;;;;;;;34.25;18.42;;;;;;;;;;5082148;28;20061;-78
2022/01/23 17:14:36;;;;;;;30.27;17.58;;;;;;;;;;5048398;28;20055;-78
2022/01/23 17:17:02;;;;;;;37.67;17.85;;;;;;;;;;5065657;28;20067;-78
2022/01/23 17:19:28;;;;;;;30.75;17.08;;;;;;;;;;5082963;28;20049;-78
2022/01/23 17:21:54;;;;;;;36.75;18.17;;;;;;;;;;5068819;28;20056;-78
2022/01/23 17:24:20;;;;;;;29.17;18.13;;;;;;;;;;5064721;28;20045;-76
2022/01/23 17:26:46;;;;;;;31.60;18.90;;;;;;;;;;5046496;28;20492;-76
2022/01/23 17:29:12;;;;;;;36.70;19.13;;;;;;;;;;5063196;28;20040;-76
2022/01/23 17:31:39;;;;;;;33.42;18.67;;;;;;;;;;5066612;28;20048;-78
2022/01/23 17:34:05;;;;;;;34.65;18.15;;;;;;;;;;5048546;28;20052;-77
2022/01/23 17:36:32;;;;;;;32.58;18.77;;;;;;;;;;5063095;28;20058;-77
2022/01/23 17:38:58;;;;;;;35.28;19.05;;;;;;;;;;5044966;28;20461;-76
2022/01/23 17:41:24;;;;;;;32.80;19.23;;;;;;;;;;5063006;28;20069;-76
2022/01/23 17:43:50;;;;;;;32.53;18.33;;;;;;;;;;5056434;28;20076;-77
2022/01/23 17:46:21;;;;;;;30.50;18.20;;;;;;;;;;5074443;28;20037;-78